Time;durP1;ratioP1;P1;durP2;ratioP2;P2;SDS_P1;SDS_P2;PMS_P1;PMS_P2;Temp;Humidity;BMP_temperature;BMP_pressure;BME280_temperature;BME280_humidity;BME280_pressure;Samples;Min_cycle;Max_cycle;Signal;HPM_P1;HPM_P2
2021/10/15 00:00:41;;;;;;;21.17;14.65;;;;;;;2.04;79.33;100265.20;1753608;82;21024;-74
2021/10/15 00:03:07;;;;;;;;;;;;;;;1.99;79.29;100261.77;1756260;82;21529;-74
2021/10/15 00:05:33;;;;;;;23.15;16.37;;;;;;;1.95;79.30;100262.69;1753380;82;20115;-74
2021/10/15 00:08:00;;;;;;;25.02;16.42;;;;;;;1.92;79.38;100262.27;1751581;82;20987;-74
2021/10/15 00:10:26;;;;;;;22.67;15.43;;;;;;;1.91;79.37;100262.78;1753183;82;21058;-74
2021/10/15 00:12:55;;;;;;;24.72;14.78;;;;;;;1.91;79.37;100262.78;1753581;82;21027;-74
2021/10/15 00:15:22;;;;;;;27.62;16.07;;;;;;;1.88;79.38;100263.19;1753415;82;21071;-74
2021/10/15 00:17:48;;;;;;;24.35;15.43;;;;;;;1.82;79.46;100264.01;1738296;82;21027;-74
2021/10/15 00:20:15;;;;;;;22.98;15.53;;;;;;;1.78;79.60;100267.29;1723804;83;22204;-74
2021/10/15 00:22:41;;;;;;;22.95;16.10;;;;;;;1.75;79.65;100255.62;1732972;82;21022;-74
2021/10/15 00:25:09;;;;;;;24.80;15.80;;;;;;;1.76;79.64;100253.26;1723374;83;21063;-74
2021/10/15 00:27:35;;;;;;;23.87;16.27;;;;;;;1.75;79.62;100251.08;1723784;83;21458;-74
2021/10/15 00:30:03;;;;;;;24.70;16.00;;;;;;;1.74;79.57;100248.08;1730475;82;21114;-74
2021/10/15 00:32:29;;;;;;;27.65;16.42;;;;;;;1.74;79.50;100251.27;1753205;82;21046;-74
2021/10/15 00:34:56;;;;;;;21.60;15.15;;;;;;;1.72;79.43;100252.83;1753354;82;21056;-74
2021/10/15 00:37:22;;;;;;;25.52;15.80;;;;;;;1.73;79.42;100244.27;1753744;82;21018;-74
2021/10/15 00:39:49;;;;;;;23.18;15.55;;;;;;;1.72;79.42;100250.15;1753717;82;21030;-74
2021/10/15 00:42:15;;;;;;;23.22;15.93;;;;;;;1.65;79.53;100246.62;1753606;82;21039;-75
2021/10/15 00:44:42;;;;;;;;;;;;;;;1.61;79.57;100245.88;1755946;82;21015;-74
2021/10/15 00:47:08;;;;;;;22.93;15.48;;;;;;;1.60;79.57;100242.87;1753588;82;20114;-74
2021/10/15 00:49:35;;;;;;;23.90;16.52;;;;;;;1.56;79.45;100252.38;1741156;82;21470;-74
2021/10/15 00:52:01;;;;;;;24.87;17.37;;;;;;;1.55;79.36;100251.55;1723664;83;21078;-74
2021/10/15 00:54:28;;;;;;;26.45;16.65;;;;;;;1.54;79.26;100249.88;1724012;83;21062;-74
2021/10/15 00:56:54;;;;;;;24.72;16.30;;;;;;;1.53;79.18;100248.72;1710573;83;21059;-75
2021/10/15 00:59:21;;;;;;;26.93;16.67;;;;;;;1.47;79.22;100251.20;1713794;84;21035;-75
2021/10/15 01:01:47;;;;;;;24.43;15.80;;;;;;;1.42;79.35;100243.42;1710125;84;21578;-74
2021/10/15 01:04:14;;;;;;;25.92;16.30;;;;;;;1.36;79.47;100245.06;1737381;82;21498;-74
2021/10/15 01:06:42;;;;;;;24.63;16.77;;;;;;;1.35;79.53;100243.91;1739245;82;21031;-74
2021/10/15 01:09:08;;;;;;;23.22;16.75;;;;;;;1.35;79.45;100237.20;1739431;82;21055;-75
2021/10/15 01:11:35;;;;;;;25.90;16.05;;;;;;;1.36;79.37;100244.23;1739591;82;21071;-75
2021/10/15 01:14:02;;;;;;;26.95;16.05;;;;;;;1.35;79.35;100246.08;1739461;82;21016;-74
2021/10/15 01:16:31;;;;;;;23.30;15.78;;;;;;;1.32;79.38;100239.78;1739309;82;21697;-75
2021/10/15 01:19:01;;;;;;;24.92;17.05;;;;;;;1.32;79.43;100241.12;1738815;82;20976;-74
2021/10/15 01:21:28;;;;;;;24.65;16.25;;;;;;;1.31;79.39;100249.38;1739314;82;21098;-74
2021/10/15 01:23:56;;;;;;;23.15;16.50;;;;;;;1.29;79.37;100248.23;1739331;82;21075;-74
2021/10/15 01:26:22;;;;;;;26.48;16.62;;;;;;;1.28;79.36;100242.54;1739435;82;21055;-74
2021/10/15 01:28:49;;;;;;;30.17;17.05;;;;;;;1.27;79.34;100239.56;1732732;82;21937;-74
2021/10/15 01:31:15;;;;;;;34.98;17.70;;;;;;;1.25;79.36;100240.26;1710144;84;21142;-74
2021/10/15 01:33:41;;;;;;;29.42;17.37;;;;;;;1.20;79.53;100236.53;1710191;84;21553;-74
2021/10/15 01:36:08;;;;;;;28.75;16.90;;;;;;;1.14;79.65;100237.31;1713788;84;21398;-74
2021/10/15 01:38:34;;;;;;;28.47;17.50;;;;;;;1.11;79.66;100238.55;1706123;82;21035;-74
2021/10/15 01:41:01;;;;;;;28.10;17.95;;;;;;;1.10;79.59;100235.53;1739446;82;21087;-74
2021/10/15 01:43:29;;;;;;;;;;;;;;;1.10;79.53;100232.05;1741769;82;21043;-74
2021/10/15 01:45:56;;;;;;;27.70;17.20;;;;;;;1.09;79.54;100237.92;1739532;82;20115;-74
2021/10/15 01:48:23;;;;;;;30.17;17.50;;;;;;;1.05;79.68;100233.98;1738847;82;21003;-74
2021/10/15 01:50:50;;;;;;;27.48;17.40;;;;;;;1.06;79.68;100235.64;1739239;82;21609;-75
2021/10/15 01:53:18;;;;;;;32.08;18.02;;;;;;;1.07;79.62;100236.45;1739394;82;21004;-74
2021/10/15 01:55:44;;;;;;;31.12;18.82;;;;;;;1.09;79.55;100236.58;1739312;81;21610;-74
2021/10/15 01:58:10;;;;;;;33.70;18.80;;;;;;;1.08;79.55;100238.11;1739491;82;20992;-74
2021/10/15 02:00:37;;;;;;;30.43;17.07;;;;;;;1.04;79.64;100243.04;1728420;82;21645;-74
2021/10/15 02:03:04;;;;;;;33.83;19.77;;;;;;;0.98;79.72;100237.97;1734665;82;21398;-74
2021/10/15 02:05:30;;;;;;;28.55;17.92;;;;;;;0.97;79.70;100248.88;1739302;82;21569;-75
2021/10/15 02:07:57;;;;;;;29.48;17.98;;;;;;;0.97;79.56;100249.71;1739722;82;21007;-75
2021/10/15 02:10:23;;;;;;;;;;;;;;;0.99;79.44;100246.84;1737796;82;21587;-75
2021/10/15 02:12:50;;;;;;;30.23;17.35;;;;;;;0.99;79.34;100250.33;1710088;83;20137;-74
2021/10/15 02:15:19;;;;;;;27.80;17.30;;;;;;;0.93;79.35;100250.29;1709670;84;21115;-75
2021/10/15 02:17:47;;;;;;;28.07;17.27;;;;;;;0.93;79.36;100253.80;1690126;84;21514;-75
2021/10/15 02:20:15;;;;;;;26.80;16.50;;;;;;;0.90;79.48;100256.88;1710211;82;21056;-75
2021/10/15 02:24:47;;;;;;;26.27;17.15;;;;;;;0.86;79.88;100246.23;1797874;79;23320;-72
2021/10/15 02:27:13;;;;;;;32.00;19.12;;;;;;;0.77;80.07;100257.31;1753496;82;21022;-72
2021/10/15 02:29:40;;;;;;;32.42;18.62;;;;;;;0.80;80.04;100252.39;1752181;82;21046;-71
2021/10/15 02:32:07;;;;;;;29.65;17.62;;;;;;;0.85;80.01;100247.79;1753290;81;21421;-71
2021/10/15 02:34:33;;;;;;;32.40;17.73;;;;;;;0.87;80.01;100244.39;1746510;82;21557;-72
2021/10/15 02:37:00;;;;;;;25.68;16.75;;;;;;;0.88;80.01;100239.34;1736295;82;21075;-72
2021/10/15 02:39:26;;;;;;;30.45;17.00;;;;;;;0.90;80.05;100240.80;1734112;82;21054;-72
2021/10/15 02:41:53;;;;;;;29.85;16.97;;;;;;;0.87;80.09;100234.50;1723359;82;21022;-72
2021/10/15 02:44:19;;;;;;;26.35;16.67;;;;;;;0.84;80.18;100240.77;1723261;83;21106;-72
2021/10/15 02:46:46;;;;;;;33.23;17.70;;;;;;;0.79;80.25;100233.81;1723309;83;21046;-72
2021/10/15 02:49:13;;;;;;;27.32;16.80;;;;;;;0.79;80.22;100231.96;1734399;82;20987;-72
2021/10/15 02:51:39;;;;;;;26.55;17.98;;;;;;;0.79;80.08;100228.45;1753078;82;21078;-71
2021/10/15 02:54:06;;;;;;;28.10;18.55;;;;;;;0.80;79.99;100224.75;1753332;81;21081;-72
2021/10/15 02:56:32;;;;;;;29.67;18.20;;;;;;;0.80;79.93;100228.27;1753182;82;21081;-72
2021/10/15 02:58:58;;;;;;;29.23;19.85;;;;;;;0.81;79.91;100219.72;1729005;82;21043;-72
2021/10/15 03:01:25;;;;;;;28.90;17.23;;;;;;;0.80;79.86;100226.92;1723174;82;21592;-72
2021/10/15 03:03:52;;;;;;;30.45;17.77;;;;;;;0.82;79.83;100234.75;1723252;83;21506;-71
2021/10/15 03:06:18;;;;;;;26.95;16.80;;;;;;;0.82;79.82;100231.56;1723155;82;21027;-72
2021/10/15 03:08:45;;;;;;;25.72;17.32;;;;;;;0.81;79.83;100229.94;1739457;82;21051;-71
2021/10/15 03:11:12;;;;;;;32.45;19.15;;;;;;;0.77;79.93;100237.21;1753283;82;21118;-72
2021/10/15 03:13:39;;;;;;;32.90;19.25;;;;;;;0.72;80.00;100243.66;1752833;82;21098;-72
2021/10/15 03:16:07;;;;;;;30.72;18.73;;;;;;;0.70;80.08;100235.83;1752677;82;21098;-72
2021/10/15 03:18:34;;;;;;;29.70;17.70;;;;;;;0.72;80.02;100237.80;1723234;82;21627;-71
2021/10/15 03:21:01;;;;;;;26.75;18.07;;;;;;;0.75;79.94;100239.24;1723192;83;21070;-72
2021/10/15 03:23:29;;;;;;;30.55;19.30;;;;;;;0.76;79.93;100234.20;1723354;83;21035;-71
2021/10/15 03:25:56;;;;;;;31.60;18.77;;;;;;;0.76;79.98;100240.91;1724062;83;21079;-73
2021/10/15 03:28:23;;;;;;;28.85;18.82;;;;;;;0.77;80.07;100239.89;1723934;82;21038;-73
2021/10/15 03:30:49;;;;;;;30.68;19.12;;;;;;;0.79;80.14;100244.02;1723855;82;21648;-71
2021/10/15 03:33:16;;;;;;;29.15;17.73;;;;;;;0.79;80.21;100243.19;1724007;83;21034;-72
2021/10/15 03:35:42;;;;;;;26.65;16.95;;;;;;;0.76;80.33;100233.70;1728988;82;21015;-72
2021/10/15 03:38:08;;;;;;;28.42;19.02;;;;;;;0.72;80.43;100232.94;1753661;82;21013;-72
2021/10/15 03:40:37;;;;;;;30.12;19.40;;;;;;;0.71;80.47;100228.62;1753075;82;21058;-72
2021/10/15 03:43:03;;;;;;;28.87;19.30;;;;;;;0.73;80.37;100222.55;1753450;82;21042;-72
2021/10/15 03:45:31;;;;;;;30.85;19.70;;;;;;;0.75;80.25;100230.70;1752832;82;21047;-72
2021/10/15 03:47:58;;;;;;;30.15;18.45;;;;;;;0.75;80.24;100235.22;1747544;82;21414;-73
2021/10/15 03:50:24;;;;;;;30.17;18.73;;;;;;;0.78;80.30;100226.81;1753167;82;21082;-72
2021/10/15 03:52:50;;;;;;;27.50;18.05;;;;;;;0.80;80.28;100236.81;1753514;82;21526;-73
2021/10/15 03:55:17;;;;;;;27.82;18.25;;;;;;;0.78;80.33;100238.34;1742652;82;20995;-72
2021/10/15 03:57:44;;;;;;;29.98;18.77;;;;;;;0.75;80.48;100232.03;1723515;82;21019;-72
2021/10/15 04:00:11;;;;;;;;;;;;;;;0.73;80.67;100230.58;1725693;83;21593;-72
2021/10/15 04:02:43;;;;;;;27.50;18.17;;;;;;;0.72;80.77;100228.41;1723421;83;20351;-72
2021/10/15 04:05:09;;;;;;;29.48;19.65;;;;;;;0.73;80.90;100232.76;1727046;82;21086;-72
2021/10/15 04:07:36;;;;;;;28.70;19.05;;;;;;;0.79;81.03;100232.47;1753110;82;21470;-72
2021/10/15 04:10:04;;;;;;;31.93;19.05;;;;;;;0.85;81.05;100235.73;1753286;82;21043;-70
2021/10/15 04:12:31;;;;;;;31.50;19.35;;;;;;;0.90;81.10;100231.92;1748818;82;20980;-71
2021/10/15 04:14:57;;;;;;;31.48;19.15;;;;;;;0.98;81.17;100231.78;1752426;82;21046;-70
2021/10/15 04:17:23;;;;;;;31.12;19.32;;;;;;;1.04;81.27;100237.68;1753066;82;21569;-71
2021/10/15 04:19:50;;;;;;;29.18;18.82;;;;;;;1.09;81.34;100240.61;1752931;82;21027;-71
2021/10/15 04:22:17;;;;;;;;;;;;;;;1.13;81.45;100236.51;1755936;82;21063;-71
2021/10/15 04:24:43;;;;;;;29.67;18.00;;;;;;;1.14;81.62;100240.82;1743093;81;20610;-72
2021/10/15 04:27:10;;;;;;;31.77;19.55;;;;;;;1.09;81.90;100243.80;1723630;83;21066;-71
2021/10/15 04:29:36;;;;;;;33.02;19.67;;;;;;;1.14;82.03;100233.28;1723305;83;21022;-71
2021/10/15 04:32:04;;;;;;;37.25;22.75;;;;;;;1.22;81.93;100242.52;1723244;83;21034;-72
2021/10/15 04:34:31;;;;;;;39.78;23.30;;;;;;;1.27;81.83;100244.94;1746189;82;21059;-71
2021/10/15 04:36:57;;;;;;;35.85;21.80;;;;;;;1.32;81.77;100242.46;1753509;82;21059;-71
2021/10/15 04:39:24;;;;;;;38.75;23.20;;;;;;;1.37;81.74;100237.84;1753370;82;21525;-70
2021/10/15 04:41:50;;;;;;;44.58;22.20;;;;;;;1.41;81.66;100243.96;1753719;82;20999;-71
2021/10/15 04:44:16;;;;;;;33.55;21.10;;;;;;;1.45;81.66;100239.02;1733888;82;21086;-71
2021/10/15 04:46:43;;;;;;;32.30;20.90;;;;;;;1.50;81.67;100242.74;1723488;83;21011;-71
2021/10/15 04:49:10;;;;;;;32.15;20.62;;;;;;;1.56;81.63;100246.47;1723178;82;21074;-71
2021/10/15 04:51:37;;;;;;;33.20;19.87;;;;;;;1.60;81.64;100249.58;1725108;82;21082;-71
2021/10/15 04:54:04;;;;;;;27.10;19.02;;;;;;;1.61;81.72;100248.55;1753181;82;21034;-71
2021/10/15 04:59:23;;;;;;;30.85;21.17;;;;;;;1.69;81.71;100248.38;1801315;79;23013;-72
2021/10/15 05:01:52;;;;;;;31.15;20.10;;;;;;;1.69;81.55;100251.90;1727324;82;21017;-70
2021/10/15 05:04:19;;;;;;;28.70;19.52;;;;;;;1.75;81.41;100252.94;1731265;82;21022;-71
2021/10/15 05:06:45;;;;;;;27.77;19.15;;;;;;;1.81;81.33;100257.48;1730840;82;21043;-71
2021/10/15 05:09:25;;;;;;;28.05;18.95;;;;;;;1.88;81.27;100254.30;1733361;82;21029;-67
2021/10/15 05:11:46;;;;;;;25.62;18.25;;;;;;;1.92;81.24;100254.21;1698649;84;21569;-67
2021/10/15 05:14:12;;;;;;;28.38;18.57;;;;;;;1.93;81.30;100257.22;1701217;84;21691;-67
2021/10/15 05:16:39;;;;;;;27.20;19.48;;;;;;;1.95;81.34;100260.52;1701238;84;21022;-67
2021/10/15 05:19:05;;;;;;;;;;;;;;;1.99;81.29;100255.05;1721396;82;21572;-65
2021/10/15 05:21:33;;;;;;;27.60;18.15;;;;;;;2.03;81.08;100252.79;1730313;83;20143;-66
2021/10/15 05:23:59;;;;;;;29.67;19.73;;;;;;;2.03;81.03;100256.31;1725041;83;21636;-65
2021/10/15 05:26:26;;;;;;;27.22;18.98;;;;;;;2.08;81.01;100259.22;1730727;82;21136;-65
2021/10/15 05:28:52;;;;;;;29.80;19.75;;;;;;;2.14;80.96;100258.40;1730482;83;21023;-67
2021/10/15 05:31:19;;;;;;;27.80;18.73;;;;;;;2.21;80.96;100261.92;1730150;83;21074;-66
2021/10/15 05:33:47;;;;;;;25.95;17.67;;;;;;;2.27;80.93;100261.09;1730021;82;21045;-66
2021/10/15 05:36:13;;;;;;;33.80;20.32;;;;;;;2.29;81.03;100261.73;1729975;83;21034;-65
2021/10/15 05:38:39;;;;;;;32.28;21.62;;;;;;;2.32;81.04;100259.97;1730491;82;21021;-67
2021/10/15 05:41:06;;;;;;;30.85;19.50;;;;;;;2.33;80.96;100262.98;1730213;82;21545;-66
2021/10/15 05:43:32;;;;;;;30.50;20.55;;;;;;;2.39;80.85;100262.66;1730381;83;21024;-66
2021/10/15 05:45:58;;;;;;;30.55;20.40;;;;;;;2.43;80.75;100259.88;1730724;82;21012;-66
2021/10/15 05:48:25;;;;;;;31.62;21.70;;;;;;;2.47;80.71;100261.95;1730294;83;21576;-65
2021/10/15 05:50:51;;;;;;;42.93;33.05;;;;;;;2.51;80.66;100263.16;1730313;83;21109;-65
2021/10/15 05:53:19;;;;;;;29.65;21.40;;;;;;;2.57;80.67;100259.35;1730444;83;20993;-66
2021/10/15 05:56:16;;;;;;;29.07;18.92;;;;;;;2.63;80.68;100262.55;1730161;83;21122;-66
2021/10/15 06:01:11;;;;;;;29.00;19.65;;;;;;;2.74;80.75;100258.72;1701305;84;21581;-67
2021/10/15 06:03:41;;;;;;;36.60;23.75;;;;;;;2.76;80.90;100258.02;1701214;84;21069;-67
2021/10/15 06:16:47;;;;;;;30.37;20.27;;;;;;;3.54;80.70;100262.05;1733678;82;21045;-67
2021/10/15 06:19:11;;;;;;;24.35;18.70;;;;;;;3.91;80.68;100258.55;1734160;82;21025;-68
2021/10/15 06:21:38;;;;;;;24.87;18.17;;;;;;;4.24;80.49;100264.56;1730043;83;21189;-68
2021/10/15 06:24:04;;;;;;;24.23;19.15;;;;;;;4.58;80.23;100261.08;1732412;82;20998;-68
2021/10/15 06:26:31;;;;;;;27.17;20.15;;;;;;;4.83;79.87;100256.50;1730237;82;21005;-67
2021/10/15 06:28:57;;;;;;;22.40;18.10;;;;;;;5.08;79.39;100261.34;1729852;83;21879;-68
2021/10/15 06:31:23;;;;;;;23.32;17.40;;;;;;;5.35;78.80;100262.70;1730120;82;21024;-68
2021/10/15 06:33:50;;;;;;;22.42;17.30;;;;;;;5.61;78.10;100257.52;1729944;82;20971;-68
2021/10/15 06:36:16;;;;;;;22.65;17.55;;;;;;;5.90;77.74;100261.34;1730860;82;21027;-68
2021/10/15 06:38:43;;;;;;;23.20;17.20;;;;;;;6.19;77.51;100266.45;1730232;82;21027;-68
2021/10/15 06:41:09;;;;;;;;;;;;;;;6.50;77.05;100271.58;1741161;82;20986;-68
2021/10/15 06:43:36;;;;;;;24.85;17.15;;;;;;;6.89;76.74;100261.98;1742892;82;20106;-68
2021/10/15 06:46:03;;;;;;;25.27;18.30;;;;;;;7.20;76.42;100260.78;1743180;82;21038;-69
2021/10/15 06:48:30;;;;;;;25.45;19.37;;;;;;;7.57;75.63;100266.21;1718602;82;21525;-69
2021/10/15 06:50:57;;;;;;;27.93;20.02;;;;;;;7.86;74.75;100265.19;1738256;82;21038;-68
2021/10/15 06:53:23;;;;;;;24.72;18.37;;;;;;;8.12;74.03;100265.13;1731200;82;21050;-69
2021/10/15 06:55:49;;;;;;;;;;;;;;;8.40;73.33;100267.84;1733122;82;21106;-69
2021/10/15 06:58:17;;;;;;;21.20;17.45;;;;;;;8.67;72.10;100271.29;1731098;83;20468;-68
2021/10/15 07:00:44;;;;;;;21.87;18.07;;;;;;;8.76;70.97;100257.58;1740512;82;21109;-68
2021/10/15 07:03:16;;;;;;;26.73;19.60;;;;;;;8.94;70.75;100260.05;1730955;83;21019;-67
2021/10/15 07:05:44;;;;;;;22.13;17.27;;;;;;;9.23;70.36;100249.88;1730676;82;21657;-68
2021/10/15 07:08:11;;;;;;;;;;;;;;;9.55;69.97;100257.66;1733508;82;21047;-67
2021/10/15 07:10:37;;;;;;;20.60;16.77;;;;;;;9.85;68.48;100247.67;1692402;84;20119;-69
2021/10/15 07:13:04;;;;;;;19.90;16.85;;;;;;;9.96;67.66;100252.16;1688066;85;21572;-70
2021/10/15 07:15:31;;;;;;;21.52;16.32;;;;;;;10.18;67.30;100251.61;1687870;85;21075;-69
2021/10/15 07:17:58;;;;;;;;;;;;;;;10.54;66.79;100256.86;1690532;85;21533;-68
2021/10/15 07:20:27;;;;;;;22.45;17.70;;;;;;;10.88;65.40;100253.31;1685996;85;20446;-69
2021/10/15 07:22:55;;;;;;;22.80;17.77;;;;;;;11.04;64.18;100255.08;1685904;85;21495;-69
2021/10/15 07:25:22;;;;;;;20.50;17.02;;;;;;;11.25;63.40;100250.58;1685373;85;21087;-69
2021/10/15 07:27:49;;;;;;;19.30;16.07;;;;;;;11.49;62.89;100248.53;1685898;85;21622;-68
2021/10/15 07:30:15;;;;;;;18.40;15.63;;;;;;;11.74;62.14;100250.58;1689186;85;21091;-68
2021/10/15 07:32:44;;;;;;;18.73;15.75;;;;;;;12.02;61.18;100237.56;1685829;85;21017;-69
2021/10/15 07:35:11;;;;;;;20.52;15.30;;;;;;;12.27;60.46;100243.91;1685709;85;21070;-69
2021/10/15 07:37:38;;;;;;;18.25;15.65;;;;;;;12.55;59.93;100245.84;1685589;85;21058;-68
2021/10/15 07:40:07;;;;;;;16.60;14.80;;;;;;;12.77;58.07;100249.95;1685318;85;21653;-68
2021/10/15 07:42:34;;;;;;;18.55;15.40;;;;;;;12.91;57.40;100247.48;1689439;85;21670;-68
2021/10/15 07:45:00;;;;;;;;;;;;;;;12.94;55.60;100238.19;1690268;85;21547;-69
2021/10/15 07:47:27;;;;;;;16.95;12.73;;;;;;;12.90;55.59;100238.45;1685918;85;20145;-68
2021/10/15 07:49:54;;;;;;;;;;;;;;;12.95;55.99;100235.73;1688158;85;21067;-68
2021/10/15 07:52:20;;;;;;;20.35;14.43;;;;;;;13.18;54.88;100233.55;1685970;85;20425;-69
2021/10/15 07:54:46;;;;;;;;;;;;;;;13.15;54.23;100233.53;1688267;85;21539;-69
2021/10/15 07:57:13;;;;;;;19.55;14.70;;;;;;;13.36;53.95;100226.92;1685832;85;20130;-70
2021/10/15 07:59:41;;;;;;;17.05;14.33;;;;;;;13.56;54.26;100227.41;1672184;85;21452;-69
2021/10/15 08:02:09;;;;;;;16.20;14.55;;;;;;;13.94;53.57;100229.42;1668400;86;21017;-69
2021/10/15 08:04:37;;;;;;;15.70;13.28;;;;;;;14.31;52.68;100232.22;1673749;85;21003;-68
2021/10/15 08:07:04;;;;;;;15.88;13.03;;;;;;;14.59;51.00;100226.56;1693430;85;20994;-69
2021/10/15 08:09:30;;;;;;;14.75;13.13;;;;;;;14.72;49.97;100232.20;1740805;82;21022;-70
2021/10/15 08:11:57;;;;;;;16.35;13.38;;;;;;;14.89;49.83;100224.92;1740992;82;20978;-68
2021/10/15 08:14:23;;;;;;;17.00;14.05;;;;;;;15.15;49.01;100226.87;1713283;82;21015;-68
2021/10/15 08:16:51;;;;;;;14.93;12.98;;;;;;;15.31;48.35;100222.30;1735467;82;20943;-69
2021/10/15 08:19:17;;;;;;;14.23;12.28;;;;;;;15.47;47.66;100224.88;1732841;83;21596;-68
2021/10/15 08:21:44;;;;;;;15.10;11.53;;;;;;;15.55;47.23;100220.16;1727493;83;21086;-69
2021/10/15 08:24:11;;;;;;;14.95;11.70;;;;;;;15.74;47.64;100220.45;1707470;83;21047;-68
2021/10/15 08:26:38;;;;;;;15.13;11.08;;;;;;;16.00;46.51;100216.81;1717770;83;21087;-69
2021/10/15 08:29:04;;;;;;;16.75;12.35;;;;;;;16.18;45.61;100219.31;1718079;83;21612;-71
2021/10/15 08:31:31;;;;;;;15.83;12.47;;;;;;;16.37;45.19;100215.98;1719285;82;21106;-70
2021/10/15 08:33:58;;;;;;;11.78;9.53;;;;;;;16.54;44.86;100219.03;1732794;83;21605;-71
2021/10/15 08:36:25;;;;;;;10.63;9.53;;;;;;;16.79;44.36;100213.11;1732788;83;21612;-71
2021/10/15 08:38:52;;;;;;;11.38;10.18;;;;;;;16.85;42.77;100209.19;1732640;83;21050;-70
2021/10/15 08:41:23;;;;;;;15.28;10.63;;;;;;;16.85;42.74;100208.36;1724725;83;21593;-69
2021/10/15 08:43:57;;;;;;;12.03;9.53;;;;;;;17.10;42.07;100199.66;1718150;83;21035;-70
2021/10/15 08:46:24;;;;;;;12.33;8.93;;;;;;;17.31;41.24;100199.52;1683085;85;21043;-68
2021/10/15 08:48:51;;;;;;;10.93;8.63;;;;;;;17.36;41.07;100196.66;1717782;83;21067;-70
2021/10/15 08:51:20;;;;;;;10.85;8.13;;;;;;;17.53;40.91;100200.20;1681359;85;21051;-68
2021/10/15 08:53:52;;;;;;;11.08;8.35;;;;;;;17.81;39.82;100194.95;1720463;83;21027;-69
2021/10/15 08:56:21;;;;;;;12.90;8.35;;;;;;;17.97;39.09;100189.91;1718134;83;21027;-71
2021/10/15 08:58:51;;;;;;;10.82;8.70;;;;;;;18.09;39.31;100190.75;1721565;83;21030;-70
2021/10/15 09:01:18;;;;;;;9.63;8.18;;;;;;;18.07;37.93;100181.41;1694884;84;21633;-70
2021/10/15 09:03:44;;;;;;;9.10;8.05;;;;;;;18.11;38.79;100187.92;1680051;84;21474;-70
2021/10/15 09:06:11;;;;;;;8.40;7.55;;;;;;;18.22;38.43;100180.23;1695608;84;21610;-70
2021/10/15 09:08:54;;;;;;;11.38;8.28;;;;;;;18.43;39.05;100177.24;1695168;84;21114;-68
2021/10/15 09:11:36;;;;;;;9.05;7.47;;;;;;;18.80;38.66;100181.59;1695997;84;21121;-69
2021/10/15 09:14:22;;;;;;;9.33;7.00;;;;;;;19.19;37.99;100180.27;1695720;84;21065;-69
2021/10/15 09:17:09;;;;;;;7.87;6.25;;;;;;;19.46;36.33;100175.67;1695389;84;21022;-69
2021/10/15 09:19:51;;;;;;;7.85;6.03;;;;;;;19.48;35.68;100167.34;1696006;84;21018;-68
2021/10/15 09:22:25;;;;;;;8.23;6.22;;;;;;;19.57;34.91;100170.10;1695758;84;21037;-70
2021/10/15 09:25:12;;;;;;;8.13;5.95;;;;;;;19.49;34.65;100172.27;1693015;84;21557;-69
2021/10/15 09:27:42;;;;;;;7.75;5.90;;;;;;;19.52;34.27;100168.89;1695568;84;21505;-69
2021/10/15 09:30:20;;;;;;;8.90;6.08;;;;;;;19.47;34.20;100168.46;1692314;84;21537;-69
2021/10/15 09:32:50;;;;;;;7.65;6.35;;;;;;;19.39;33.77;100171.41;1676734;85;21019;-70
2021/10/15 09:35:19;;;;;;;8.68;6.22;;;;;;;19.25;33.87;100165.18;1678057;85;21074;-69
2021/10/15 09:37:48;;;;;;;7.33;5.87;;;;;;;19.16;33.85;100167.11;1653850;86;20984;-70
2021/10/15 09:40:21;;;;;;;9.85;6.47;;;;;;;18.76;33.83;100166.80;1688876;85;21111;-68
2021/10/15 09:42:53;;;;;;;8.98;6.03;;;;;;;18.28;34.27;100158.34;1666391;86;21485;-69
2021/10/15 09:45:21;;;;;;;8.75;6.45;;;;;;;17.83;35.69;100156.06;1673693;85;21047;-69
2021/10/15 09:47:55;;;;;;;8.08;6.40;;;;;;;17.54;36.51;100152.81;1677111;85;21040;-74
2021/10/15 09:50:30;;;;;;;7.22;6.30;;;;;;;17.31;36.87;100150.00;1678279;85;21075;-70
2021/10/15 09:53:01;;;;;;;6.95;5.80;;;;;;;17.00;37.15;100144.03;1678439;85;21044;-70
2021/10/15 09:55:34;;;;;;;7.37;6.12;;;;;;;16.68;37.79;100142.14;1672944;85;21604;-69
2021/10/15 09:58:17;;;;;;;7.22;5.55;;;;;;;16.38;38.11;100137.94;1682610;84;21009;-69
2021/10/15 10:00:44;;;;;;;11.08;6.47;;;;;;;16.14;38.60;100144.93;1692791;84;21698;-70
2021/10/15 10:03:11;;;;;;;7.33;6.12;;;;;;;15.78;38.47;100139.15;1740682;82;20999;-70
2021/10/15 10:05:38;;;;;;;8.08;5.75;;;;;;;15.49;39.16;100126.09;1710043;82;21093;-73
2021/10/15 10:08:05;;;;;;;8.98;5.95;;;;;;;15.31;39.95;100135.89;1678252;83;21595;-70
2021/10/15 10:10:34;;;;;;;7.70;5.95;;;;;;;15.11;39.84;100133.41;1708571;83;21035;-68
2021/10/15 10:13:04;;;;;;;7.22;5.37;;;;;;;14.84;39.80;100118.09;1692586;83;21062;-68
2021/10/15 10:15:32;;;;;;;7.05;5.37;;;;;;;14.66;40.97;100122.39;1721082;82;21380;-69
2021/10/15 10:18:12;;;;;;;7.10;5.25;;;;;;;14.56;41.47;100127.94;1711962;82;21039;-69
2021/10/15 10:20:36;;;;;;;;;;;;;;;14.55;41.03;100122.77;1709477;83;21094;-69
2021/10/15 10:23:20;;;;;;;8.23;5.70;;;;;;;14.49;42.03;100121.19;1720026;82;20109;-69
2021/10/15 10:25:47;;;;;;;11.57;6.60;;;;;;;14.45;42.60;100123.11;1719786;83;21108;-69
2021/10/15 10:28:21;;;;;;;10.32;6.28;;;;;;;14.49;41.39;100112.39;1710486;84;21038;-71
2021/10/15 10:30:54;;;;;;;12.65;6.28;;;;;;;14.41;41.29;100115.77;1719336;83;21038;-69
2021/10/15 10:33:21;;;;;;;9.00;6.17;;;;;;;14.34;42.27;100114.74;1717471;82;21525;-71
2021/10/15 10:35:49;;;;;;;8.95;7.10;;;;;;;14.28;42.08;100110.36;1718591;83;21030;-70
2021/10/15 10:38:25;;;;;;;7.83;6.42;;;;;;;14.22;42.37;100115.63;1717176;83;21006;-70
2021/10/15 10:41:03;;;;;;;8.10;5.72;;;;;;;14.22;42.43;100107.41;1716184;83;21042;-70
2021/10/15 10:43:36;;;;;;;10.20;6.45;;;;;;;14.26;42.62;100106.28;1713252;83;21031;-69
2021/10/15 10:46:19;;;;;;;9.90;7.28;;;;;;;14.33;42.87;100104.03;1693611;83;21557;-69
2021/10/15 10:48:58;;;;;;;7.80;6.42;;;;;;;14.38;42.56;100098.55;1716221;83;21023;-71
2021/10/15 10:51:30;;;;;;;12.18;7.03;;;;;;;14.42;42.39;100103.69;1716186;83;21026;-70
2021/10/15 10:54:14;;;;;;;11.18;6.45;;;;;;;14.41;42.49;100100.70;1739258;82;21010;-70
2021/10/15 10:56:45;;;;;;;10.50;6.75;;;;;;;14.39;42.01;100105.64;1738184;82;21050;-71
2021/10/15 10:59:29;;;;;;;12.98;7.58;;;;;;;14.34;42.05;100105.70;1741479;82;21026;-70
2021/10/15 11:02:03;;;;;;;11.12;6.92;;;;;;;14.30;42.22;100099.13;1735773;82;21339;-69
2021/10/15 11:04:36;;;;;;;9.68;6.78;;;;;;;14.27;42.26;100096.42;1730230;82;21579;-69
2021/10/15 11:07:06;;;;;;;9.10;6.65;;;;;;;14.26;42.58;100092.05;1692638;84;20999;-68
2021/10/15 11:09:54;;;;;;;8.20;6.28;;;;;;;14.29;42.35;100090.09;1695864;84;20990;-69
2021/10/15 11:12:32;;;;;;;7.70;5.90;;;;;;;14.33;42.37;100091.70;1686671;84;21767;-70
2021/10/15 11:15:02;;;;;;;8.48;6.58;;;;;;;14.33;42.04;100084.31;1692069;84;21407;-68
2021/10/15 11:17:41;;;;;;;11.55;6.90;;;;;;;14.30;41.78;100085.44;1696004;84;21008;-70
2021/10/15 11:20:17;;;;;;;10.15;6.58;;;;;;;14.30;42.04;100090.37;1673713;85;21539;-68
2021/10/15 11:23:00;;;;;;;7.28;5.72;;;;;;;14.34;41.61;100084.62;1693834;84;21033;-69
2021/10/15 11:25:33;;;;;;;9.60;6.00;;;;;;;14.34;41.53;100079.14;1670078;84;21149;-69
2021/10/15 11:28:08;;;;;;;7.83;4.95;;;;;;;14.35;41.11;100082.12;1695948;84;21011;-68
2021/10/15 11:30:40;;;;;;;10.05;5.12;;;;;;;14.31;40.47;100063.80;1694237;84;21062;-68
2021/10/15 11:33:07;;;;;;;7.08;4.90;;;;;;;14.23;40.16;100070.72;1683015;85;21050;-71
2021/10/15 11:35:37;;;;;;;7.65;5.37;;;;;;;14.23;40.76;100058.94;1660963;85;21087;-69
2021/10/15 11:38:10;;;;;;;6.72;5.28;;;;;;;14.24;40.52;100064.11;1681942;85;21599;-68
2021/10/15 11:40:43;;;;;;;8.20;5.45;;;;;;;14.25;40.66;100059.45;1680403;85;21075;-68
2021/10/15 11:43:22;;;;;;;7.50;5.58;;;;;;;14.27;41.12;100049.05;1680501;85;21011;-69
2021/10/15 11:45:59;;;;;;;10.08;5.65;;;;;;;14.27;40.77;100040.84;1678207;85;21083;-68